createdAt,value
2023-02-19T00:00:36.172Z,10.10
2023-02-19T00:03:23.036Z,10.10
2023-02-19T00:06:11.328Z,10.00
2023-02-19T00:08:58.652Z,10.00
2023-02-19T00:11:46.622Z,10.00
2023-02-19T00:14:33.499Z,10.00
2023-02-19T00:17:20.313Z,9.90
2023-02-19T00:20:07.607Z,9.90
2023-02-19T00:22:54.412Z,9.90
2023-02-19T00:25:41.225Z,9.90
2023-02-19T00:28:27.995Z,9.90
2023-02-19T00:31:25.395Z,9.90
2023-02-19T00:34:13.688Z,9.80
2023-02-19T00:37:00.590Z,9.80
2023-02-19T00:39:47.397Z,9.80
2023-02-19T00:42:34.235Z,9.70
2023-02-19T00:45:21.109Z,9.70
2023-02-19T00:48:07.923Z,9.70
2023-02-19T00:50:54.718Z,9.70
2023-02-19T00:53:42.140Z,9.70
2023-02-19T00:56:29.122Z,9.70
2023-02-19T00:59:16.081Z,9.70
2023-02-19T01:02:03.799Z,9.70
2023-02-19T01:04:50.813Z,9.60
2023-02-19T01:07:37.783Z,9.60
2023-02-19T01:10:24.617Z,9.60
2023-02-19T01:13:11.558Z,9.60
2023-02-19T01:16:09.652Z,9.60
2023-02-19T01:18:57.215Z,9.60
2023-02-19T01:21:44.070Z,9.60
2023-02-19T01:24:30.960Z,9.60
2023-02-19T01:27:17.769Z,9.60
2023-02-19T01:30:04.862Z,9.60
2023-02-19T01:32:51.711Z,9.50
2023-02-19T01:35:39.821Z,9.60
2023-02-19T01:38:26.666Z,9.60
2023-02-19T01:41:16.674Z,9.60
2023-02-19T01:44:08.126Z,9.50
2023-02-19T01:46:57.625Z,9.60
2023-02-19T01:49:49.791Z,9.60
2023-02-19T01:52:37.402Z,9.50
2023-02-19T01:55:24.571Z,9.50
2023-02-19T01:58:11.573Z,9.50
2023-02-19T02:00:59.708Z,9.50
2023-02-19T02:03:49.172Z,9.50
2023-02-19T02:06:57.505Z,9.40
2023-02-19T02:10:02.895Z,9.40
2023-02-19T02:12:53.475Z,9.50
2023-02-19T02:16:25.376Z,9.50
2023-02-19T02:19:35.299Z,9.60
2023-02-19T02:22:32.084Z,9.70
2023-02-19T02:25:27.713Z,9.70
2023-02-19T02:28:23.346Z,9.70
2023-02-19T02:31:33.380Z,9.70
2023-02-19T02:34:53.085Z,9.80
2023-02-19T02:37:43.593Z,9.80
2023-02-19T02:40:31.001Z,9.80
2023-02-19T02:43:17.922Z,9.80
2023-02-19T02:46:04.872Z,9.80
2023-02-19T02:48:57.439Z,9.80
2023-02-19T02:51:47.684Z,9.70
2023-02-19T02:54:54.481Z,9.70
2023-02-19T02:57:41.313Z,9.70
2023-02-19T03:00:49.621Z,9.70
2023-02-19T03:03:40.099Z,9.60
2023-02-19T03:06:30.086Z,9.60
2023-02-19T03:09:30.350Z,9.50
2023-02-19T03:12:37.669Z,9.40
2023-02-19T03:15:46.136Z,9.40
2023-02-19T03:18:53.670Z,9.30
2023-02-19T03:21:43.746Z,9.20
2023-02-19T03:24:54.013Z,9.20
2023-02-19T03:27:43.901Z,9.20
2023-02-19T03:30:37.867Z,9.20
2023-02-19T03:33:28.650Z,9.20
2023-02-19T03:36:15.869Z,9.20
2023-02-19T03:39:05.890Z,9.10
2023-02-19T03:41:55.603Z,9.10
2023-02-19T03:45:04.406Z,9.10
2023-02-19T03:48:23.506Z,9.10
2023-02-19T03:51:27.458Z,9.10
2023-02-19T03:54:23.580Z,9.20
2023-02-19T03:57:23.195Z,9.30
2023-02-19T04:00:22.032Z,9.30
2023-02-19T04:03:16.337Z,9.30
2023-02-19T04:06:10.202Z,9.40
2023-02-19T04:09:01.275Z,9.40
2023-02-19T04:11:50.773Z,9.40
2023-02-19T04:14:43.526Z,9.40
2023-02-19T04:17:54.563Z,9.30
2023-02-19T04:20:44.798Z,9.30
2023-02-19T04:23:38.366Z,9.30
2023-02-19T04:26:25.205Z,9.20
2023-02-19T04:29:12.079Z,9.30
2023-02-19T04:31:58.866Z,9.20
2023-02-19T04:34:45.748Z,9.20
2023-02-19T04:37:32.628Z,9.30
2023-02-19T04:40:19.624Z,9.30
2023-02-19T04:43:06.435Z,9.30
2023-02-19T04:45:53.256Z,9.30
2023-02-19T04:48:40.246Z,9.20
2023-02-19T04:51:27.157Z,9.20
2023-02-19T04:54:13.957Z,9.20
2023-02-19T04:57:00.838Z,9.20
2023-02-19T04:59:47.920Z,9.30
2023-02-19T05:02:34.776Z,9.20
2023-02-19T05:05:21.600Z,9.20
2023-02-19T05:08:08.606Z,9.20
2023-02-19T05:10:59.119Z,9.20
2023-02-19T05:13:45.998Z,9.20
2023-02-19T05:16:33.359Z,9.20
2023-02-19T05:19:20.213Z,9.20
2023-02-19T05:22:07.073Z,9.20
2023-02-19T05:24:53.886Z,9.20
2023-02-19T05:27:40.743Z,9.20
2023-02-19T05:30:27.620Z,9.20
2023-02-19T05:33:14.767Z,9.20
2023-02-19T05:36:09.542Z,9.20
2023-02-19T05:38:57.557Z,9.20
2023-02-19T05:41:44.442Z,9.20
2023-02-19T05:44:31.235Z,9.20
2023-02-19T05:47:18.062Z,9.20
2023-02-19T05:50:05.306Z,9.20
2023-02-19T05:52:52.156Z,9.30
2023-02-19T05:55:38.918Z,9.30
2023-02-19T05:58:26.552Z,9.30
2023-02-19T06:01:21.815Z,9.30
2023-02-19T06:04:10.784Z,9.30
2023-02-19T06:06:57.729Z,9.30
2023-02-19T06:09:44.644Z,9.30
2023-02-19T06:12:31.513Z,9.20
2023-02-19T06:15:18.418Z,9.30
2023-02-19T06:18:05.333Z,9.30
2023-02-19T06:20:52.130Z,9.30
2023-02-19T06:23:39.186Z,9.30
2023-02-19T06:26:26.623Z,9.30
2023-02-19T06:29:13.439Z,9.30
2023-02-19T06:32:01.039Z,9.30
2023-02-19T06:34:47.915Z,9.30
2023-02-19T06:37:34.778Z,9.30
2023-02-19T06:40:21.631Z,9.30
2023-02-19T06:43:08.825Z,9.20
2023-02-19T06:46:01.435Z,9.20
2023-02-19T06:48:48.390Z,9.20
2023-02-19T06:51:35.219Z,9.20
2023-02-19T06:54:22.054Z,9.10
2023-02-19T06:57:08.842Z,9.10
2023-02-19T06:59:55.661Z,9.20
2023-02-19T07:02:42.445Z,9.10
2023-02-19T07:05:29.320Z,9.10
2023-02-19T07:08:17.422Z,9.10
2023-02-19T07:11:04.499Z,9.10
2023-02-19T07:13:56.297Z,9.10
2023-02-19T07:16:44.164Z,9.10
2023-02-19T07:19:30.868Z,9.10
2023-02-19T07:22:17.736Z,9.10
2023-02-19T07:25:04.687Z,9.10
2023-02-19T07:27:51.543Z,9.10
2023-02-19T07:30:38.392Z,9.20
2023-02-19T07:33:25.211Z,9.20
2023-02-19T07:36:13.249Z,9.20
2023-02-19T07:39:00.723Z,9.20
2023-02-19T07:41:47.523Z,9.20
2023-02-19T07:44:34.466Z,9.20
2023-02-19T07:47:21.248Z,9.20
2023-02-19T07:50:08.491Z,9.20
2023-02-19T07:52:55.261Z,9.30
2023-02-19T07:55:42.072Z,9.30
2023-02-19T07:58:29.957Z,9.30
2023-02-19T08:01:17.992Z,9.30
2023-02-19T08:04:04.935Z,9.40
2023-02-19T08:06:53.211Z,9.40
2023-02-19T08:09:40.001Z,9.50
2023-02-19T08:12:45.357Z,9.50
2023-02-19T08:15:33.236Z,9.50
2023-02-19T08:18:22.300Z,9.50
2023-02-19T08:21:09.456Z,9.40
2023-02-19T08:23:56.386Z,9.50
2023-02-19T08:26:43.187Z,9.50
2023-02-19T08:29:30.035Z,9.60
2023-02-19T08:32:16.884Z,9.70
2023-02-19T08:35:03.846Z,9.60
2023-02-19T08:37:50.802Z,9.70
2023-02-19T08:40:39.093Z,9.70
2023-02-19T08:43:25.947Z,9.60
2023-02-19T08:46:13.167Z,9.60
2023-02-19T08:48:59.985Z,9.50
2023-02-19T08:51:46.889Z,9.50
2023-02-19T08:54:33.737Z,9.40
2023-02-19T08:57:20.645Z,9.40
2023-02-19T09:00:09.005Z,9.40
2023-02-19T09:02:58.600Z,9.40
2023-02-19T09:05:46.930Z,9.40
2023-02-19T09:08:33.762Z,9.50
2023-02-19T09:11:20.591Z,9.40
2023-02-19T09:14:07.842Z,9.40
2023-02-19T09:16:54.671Z,9.40
2023-02-19T09:19:41.541Z,9.50
2023-02-19T09:22:28.565Z,9.60
2023-02-19T09:25:15.397Z,9.60
2023-02-19T09:28:02.243Z,9.70
2023-02-19T09:30:49.102Z,9.80
2023-02-19T09:33:36.043Z,9.90
2023-02-19T09:36:22.868Z,10.10
2023-02-19T09:39:12.411Z,10.30
2023-02-19T09:42:04.441Z,10.40
2023-02-19T09:44:53.913Z,10.50
2023-02-19T09:47:40.817Z,10.70
2023-02-19T09:50:39.225Z,11.00
2023-02-19T09:53:28.841Z,11.50
2023-02-19T09:56:16.430Z,11.60
2023-02-19T09:59:04.118Z,11.60
2023-02-19T10:02:14.562Z,11.60
2023-02-19T10:05:03.898Z,11.80
2023-02-19T10:07:54.134Z,11.90
2023-02-19T10:10:41.656Z,12.00
2023-02-19T10:13:51.749Z,11.90
2023-02-19T10:16:44.556Z,11.70
2023-02-19T10:19:32.834Z,11.50
2023-02-19T10:22:20.486Z,11.30
2023-02-19T10:25:07.615Z,11.10
2023-02-19T10:27:54.925Z,11.00
2023-02-19T10:30:41.805Z,11.00
2023-02-19T10:33:29.472Z,10.90
2023-02-19T10:36:31.606Z,10.90
2023-02-19T10:39:21.946Z,10.90
2023-02-19T10:42:23.102Z,10.80
2023-02-19T10:45:21.928Z,10.90
2023-02-19T10:48:24.809Z,10.90
2023-02-19T10:51:14.915Z,10.80
2023-02-19T10:54:20.384Z,10.80
2023-02-19T10:57:32.849Z,11.10
2023-02-19T11:00:26.707Z,11.30
2023-02-19T11:03:22.361Z,11.30
2023-02-19T11:06:11.592Z,11.20
2023-02-19T11:09:01.117Z,11.10
2023-02-19T11:11:52.345Z,11.30
2023-02-19T11:14:43.603Z,11.60
2023-02-19T11:17:30.826Z,13.00
2023-02-19T11:20:18.705Z,13.50
2023-02-19T11:23:17.551Z,13.70
2023-02-19T11:26:15.600Z,13.30
2023-02-19T11:29:22.560Z,12.90
2023-02-19T11:32:21.753Z,12.50
2023-02-19T11:35:23.739Z,12.00
2023-02-19T11:38:12.924Z,11.60
2023-02-19T11:41:18.835Z,11.50
2023-02-19T11:44:20.374Z,11.30
2023-02-19T11:47:34.804Z,11.10
2023-02-19T11:50:45.403Z,10.90
2023-02-19T11:53:37.250Z,10.80
2023-02-19T11:56:40.603Z,10.70
2023-02-19T11:59:43.742Z,10.60
2023-02-19T12:02:54.219Z,10.70
2023-02-19T12:06:01.066Z,10.80
2023-02-19T12:08:47.988Z,10.80
2023-02-19T12:11:45.242Z,10.80
2023-02-19T12:15:00.531Z,10.70
2023-02-19T12:18:22.321Z,10.70
2023-02-19T12:21:24.418Z,10.70
2023-02-19T12:24:16.893Z,10.60
2023-02-19T12:27:20.556Z,10.60
2023-02-19T12:30:46.067Z,10.40
2023-02-19T12:34:12.578Z,10.40
2023-02-19T12:37:28.249Z,10.20
2023-02-19T12:40:42.346Z,10.10
2023-02-19T12:43:30.368Z,10.10
2023-02-19T12:46:28.348Z,10.40
2023-02-19T12:49:38.984Z,10.50
2023-02-19T12:52:31.544Z,10.50
2023-02-19T12:55:29.886Z,10.50
2023-02-19T12:58:42.993Z,10.50
2023-02-19T13:01:36.188Z,10.60
2023-02-19T13:04:47.374Z,10.60
2023-02-19T13:07:46.378Z,10.60
2023-02-19T13:10:41.824Z,10.60
2023-02-19T13:13:35.166Z,10.50
2023-02-19T13:16:23.766Z,10.50
2023-02-19T13:19:11.810Z,10.50
2023-02-19T13:22:35.265Z,10.50
2023-02-19T13:25:24.555Z,10.40
2023-02-19T13:28:46.016Z,10.40
2023-02-19T13:31:50.970Z,10.40
2023-02-19T13:34:45.573Z,10.30
2023-02-19T13:37:34.983Z,10.20
2023-02-19T13:40:45.219Z,10.10
2023-02-19T13:43:39.987Z,10.10
2023-02-19T13:46:35.488Z,10.00
2023-02-19T13:49:28.660Z,10.00
2023-02-19T13:52:30.259Z,10.00
2023-02-19T13:55:49.784Z,10.00
2023-02-19T13:58:37.899Z,10.00
2023-02-19T14:01:54.255Z,10.00
2023-02-19T14:05:01.540Z,10.00
2023-02-19T14:07:54.962Z,10.10
2023-02-19T14:10:58.012Z,10.20
2023-02-19T14:13:47.836Z,10.40
2023-02-19T14:16:49.634Z,10.40
2023-02-19T14:19:42.680Z,10.40
2023-02-19T14:22:52.260Z,10.40
2023-02-19T14:25:52.701Z,10.30
2023-02-19T14:28:45.555Z,10.20
2023-02-19T14:31:36.371Z,10.10
2023-02-19T14:34:26.931Z,10.10
2023-02-19T14:37:21.227Z,10.00
2023-02-19T14:40:12.573Z,10.00
2023-02-19T14:43:01.208Z,10.00
2023-02-19T14:46:00.863Z,10.00
2023-02-19T14:48:49.777Z,10.00
2023-02-19T14:51:40.367Z,10.10
2023-02-19T14:54:46.075Z,10.10
2023-02-19T14:57:36.725Z,10.10
2023-02-19T15:00:40.228Z,10.10
2023-02-19T15:03:33.386Z,10.00
2023-02-19T15:06:20.363Z,9.90
2023-02-19T15:09:07.645Z,9.90
2023-02-19T15:11:55.529Z,9.90
2023-02-19T15:14:42.316Z,9.90
2023-02-19T15:17:32.483Z,9.80
2023-02-19T15:20:22.980Z,9.80
2023-02-19T15:23:18.803Z,9.70
2023-02-19T15:26:14.149Z,9.70
2023-02-19T15:29:04.160Z,9.70
2023-02-19T15:31:55.688Z,9.70
2023-02-19T15:34:42.602Z,9.70
2023-02-19T15:37:32.413Z,9.60
2023-02-19T15:40:24.084Z,9.60
2023-02-19T15:43:24.115Z,9.60
2023-02-19T15:46:29.072Z,9.60
2023-02-19T15:49:31.013Z,9.60
2023-02-19T15:52:33.561Z,9.70
2023-02-19T15:55:40.890Z,9.70
2023-02-19T15:58:46.118Z,9.70
2023-02-19T16:01:38.646Z,9.60
2023-02-19T16:04:25.485Z,9.60
2023-02-19T16:07:27.933Z,9.60
2023-02-19T16:10:24.702Z,9.50
2023-02-19T16:13:12.404Z,9.50
2023-02-19T16:16:16.298Z,9.50
2023-02-19T16:19:03.152Z,9.50
2023-02-19T16:21:50.615Z,9.50
2023-02-19T16:24:44.698Z,9.50
2023-02-19T16:27:33.708Z,9.50
2023-02-19T16:30:28.109Z,9.50
2023-02-19T16:33:36.308Z,9.50
2023-02-19T16:36:41.874Z,9.40
2023-02-19T16:39:28.798Z,9.40
2023-02-19T16:42:15.830Z,9.40
2023-02-19T16:45:02.841Z,9.30
2023-02-19T16:47:51.290Z,9.30
2023-02-19T16:50:43.280Z,9.20
2023-02-19T16:53:30.524Z,9.20
2023-02-19T16:56:21.265Z,9.20
2023-02-19T16:59:08.337Z,9.20
2023-02-19T17:01:55.250Z,9.20
2023-02-19T17:04:42.202Z,9.20
2023-02-19T17:07:29.165Z,9.20
2023-02-19T17:10:27.203Z,9.20
2023-02-19T17:13:14.020Z,9.10
2023-02-19T17:16:00.957Z,9.10
2023-02-19T17:18:47.963Z,9.10
2023-02-19T17:21:34.932Z,9.00
2023-02-19T17:24:21.798Z,9.00
2023-02-19T17:27:12.377Z,9.00
2023-02-19T17:29:59.277Z,8.90
2023-02-19T17:32:46.153Z,8.90
2023-02-19T17:35:32.996Z,8.90
2023-02-19T17:38:19.856Z,8.90
2023-02-19T17:41:06.668Z,8.90
2023-02-19T17:43:53.673Z,8.90
2023-02-19T17:46:41.142Z,8.90
2023-02-19T17:49:28.313Z,8.90
2023-02-19T17:52:17.752Z,8.90
2023-02-19T17:55:04.927Z,8.90
2023-02-19T17:57:52.402Z,8.90
2023-02-19T18:00:39.302Z,8.90
2023-02-19T18:03:26.184Z,8.90
2023-02-19T18:06:13.432Z,8.90
2023-02-19T18:09:00.292Z,8.90
2023-02-19T18:11:48.304Z,8.90
2023-02-19T18:14:35.166Z,8.90
2023-02-19T18:17:22.614Z,8.90
2023-02-19T18:20:17.051Z,8.90
2023-02-19T18:23:04.348Z,8.90
2023-02-19T18:25:51.154Z,8.90
2023-02-19T18:28:38.556Z,8.90
2023-02-19T18:31:25.515Z,8.90
2023-02-19T18:34:18.422Z,8.80
2023-02-19T18:37:05.242Z,8.80
2023-02-19T18:39:52.726Z,8.80
2023-02-19T18:42:40.423Z,8.80
2023-02-19T18:45:27.642Z,8.80
2023-02-19T18:48:14.462Z,8.80
2023-02-19T18:51:01.309Z,8.80
2023-02-19T18:53:48.140Z,8.80
2023-02-19T18:56:46.203Z,8.70
2023-02-19T18:59:33.088Z,8.70
2023-02-19T19:02:20.046Z,8.70
2023-02-19T19:05:06.985Z,8.70
2023-02-19T19:07:59.506Z,8.60
2023-02-19T19:10:46.399Z,8.60
2023-02-19T19:13:33.338Z,8.50
2023-02-19T19:16:30.188Z,8.50
2023-02-19T19:19:17.516Z,8.40
2023-02-19T19:22:04.406Z,8.40
2023-02-19T19:24:51.258Z,8.40
2023-02-19T19:27:38.207Z,8.50
2023-02-19T19:30:25.472Z,8.50
2023-02-19T19:33:14.263Z,8.50
2023-02-19T19:36:01.211Z,8.50
2023-02-19T19:38:48.723Z,8.50
2023-02-19T19:41:35.750Z,8.50
2023-02-19T19:44:22.897Z,8.50
2023-02-19T19:47:09.823Z,8.50
2023-02-19T19:49:56.734Z,8.50
2023-02-19T19:52:43.705Z,8.50
2023-02-19T19:55:30.514Z,8.40
2023-02-19T19:58:20.955Z,8.40
2023-02-19T20:01:07.805Z,8.50
2023-02-19T20:03:54.650Z,8.50
2023-02-19T20:06:41.481Z,8.40
2023-02-19T20:09:29.257Z,8.40
2023-02-19T20:12:16.872Z,8.40
2023-02-19T20:15:03.962Z,8.40
2023-02-19T20:17:50.749Z,8.40
2023-02-19T20:20:37.989Z,8.30
2023-02-19T20:23:27.131Z,8.20
2023-02-19T20:26:25.863Z,8.30
2023-02-19T20:29:12.992Z,8.30
2023-02-19T20:32:00.562Z,8.30
2023-02-19T20:34:48.558Z,8.30
2023-02-19T20:37:38.399Z,8.30
2023-02-19T20:40:27.714Z,8.30
2023-02-19T20:43:14.568Z,8.30
2023-02-19T20:46:01.393Z,8.40
2023-02-19T20:48:49.924Z,8.40
2023-02-19T20:51:48.192Z,8.30
2023-02-19T20:54:35.936Z,8.30
2023-02-19T20:57:23.310Z,8.30
2023-02-19T21:00:11.269Z,8.40
2023-02-19T21:02:58.131Z,8.40
2023-02-19T21:05:45.046Z,8.30
2023-02-19T21:08:31.831Z,8.40
2023-02-19T21:11:18.679Z,8.40
2023-02-19T21:14:05.702Z,8.50
2023-02-19T21:16:53.676Z,8.50
2023-02-19T21:19:40.457Z,8.50
2023-02-19T21:22:27.320Z,8.50
2023-02-19T21:25:14.285Z,8.40
2023-02-19T21:28:01.246Z,8.40
2023-02-19T21:30:48.817Z,8.50
2023-02-19T21:33:35.646Z,8.50
2023-02-19T21:36:22.449Z,8.50
2023-02-19T21:39:11.935Z,8.50
2023-02-19T21:41:58.770Z,8.40
2023-02-19T21:44:45.676Z,8.40
2023-02-19T21:47:32.540Z,8.40
2023-02-19T21:50:20.596Z,8.30
2023-02-19T21:53:07.421Z,8.30
2023-02-19T21:56:10.409Z,8.30
2023-02-19T21:58:57.433Z,8.30
2023-02-19T22:01:45.156Z,8.30
2023-02-19T22:04:31.982Z,8.30
2023-02-19T22:07:18.890Z,8.40
2023-02-19T22:10:07.830Z,8.40
2023-02-19T22:12:54.670Z,8.50
2023-02-19T22:15:41.529Z,8.50
2023-02-19T22:18:28.373Z,8.40
2023-02-19T22:21:15.907Z,8.40
2023-02-19T22:24:03.414Z,8.40
2023-02-19T22:26:51.405Z,8.30
2023-02-19T22:29:38.240Z,8.20
2023-02-19T22:32:25.124Z,8.10
2023-02-19T22:35:12.934Z,8.00
2023-02-19T22:38:00.726Z,7.90
2023-02-19T22:40:47.570Z,7.70
2023-02-19T22:43:34.388Z,7.70
2023-02-19T22:46:26.986Z,7.50
2023-02-19T22:49:13.756Z,7.40
2023-02-19T22:52:07.564Z,7.40
2023-02-19T22:54:57.326Z,7.40
2023-02-19T22:57:44.138Z,7.40
2023-02-19T23:00:31.083Z,7.30
2023-02-19T23:03:17.932Z,7.20
2023-02-19T23:06:05.217Z,7.10
2023-02-19T23:08:53.776Z,7.10
2023-02-19T23:11:40.638Z,7.00
2023-02-19T23:14:27.506Z,6.90
2023-02-19T23:17:14.390Z,6.90
2023-02-19T23:20:01.722Z,6.90
2023-02-19T23:22:48.555Z,7.00
2023-02-19T23:25:35.398Z,7.00
2023-02-19T23:28:22.232Z,6.90
2023-02-19T23:31:09.927Z,6.80
2023-02-19T23:33:56.818Z,6.80
2023-02-19T23:36:46.734Z,6.80
2023-02-19T23:39:33.528Z,6.80
2023-02-19T23:42:20.337Z,6.70
2023-02-19T23:45:07.547Z,6.80
2023-02-19T23:47:54.460Z,6.80
2023-02-19T23:50:41.476Z,6.80
2023-02-19T23:53:28.301Z,6.80
2023-02-19T23:56:23.708Z,6.80
2023-02-19T23:59:10.512Z,6.80
